createdAt,value
2016-11-20T00:00:45.089Z,5.13
2016-11-20T00:01:45.210Z,5.12
2016-11-20T00:02:45.099Z,5.07
2016-11-20T00:03:45.137Z,5.17
2016-11-20T00:04:45.129Z,4.99
2016-11-20T00:05:45.104Z,5.19
2016-11-20T00:06:45.249Z,5.19
2016-11-20T00:07:45.092Z,5.1
2016-11-20T00:08:45.119Z,5.12
2016-11-20T00:09:45.149Z,4.96
2016-11-20T00:10:45.355Z,5.04
2016-11-20T00:11:45.124Z,5.09
2016-11-20T00:12:45.096Z,5.04
2016-11-20T00:13:45.108Z,5.04
2016-11-20T00:14:45.244Z,5.22
2016-11-20T00:15:45.117Z,5.12
2016-11-20T00:16:45.133Z,5.12
2016-11-20T00:17:45.130Z,5.12
2016-11-20T00:18:45.117Z,5.19
2016-11-20T00:19:45.118Z,5.17
2016-11-20T00:20:45.163Z,5.13
2016-11-20T00:21:45.137Z,5.05
2016-11-20T00:22:45.183Z,5.05
2016-11-20T00:23:45.154Z,5.25
2016-11-20T00:24:45.124Z,4.94
2016-11-20T00:25:45.252Z,5.14
2016-11-20T00:26:45.188Z,5.23
2016-11-20T00:27:45.306Z,5.12
2016-11-20T00:28:45.114Z,5.01
2016-11-20T00:29:45.427Z,5.23
2016-11-20T00:30:45.181Z,5.04
2016-11-20T00:31:45.159Z,5.09
2016-11-20T00:32:45.124Z,5.19
2016-11-20T00:33:45.362Z,4.95
2016-11-20T00:34:45.124Z,4.92
2016-11-20T00:35:45.355Z,4.88
2016-11-20T00:36:45.202Z,5.07
2016-11-20T00:37:45.271Z,5.13
2016-11-20T00:38:45.111Z,5.07
2016-11-20T00:39:45.125Z,5.05
2016-11-20T00:40:45.163Z,5.09
2016-11-20T00:41:45.141Z,4.91
2016-11-20T00:42:45.144Z,5.07
2016-11-20T00:43:45.266Z,5.1
2016-11-20T00:44:45.175Z,4.99
2016-11-20T00:45:45.155Z,5.19
2016-11-20T00:46:45.203Z,4.99
2016-11-20T00:47:45.146Z,5.05
2016-11-20T00:48:45.127Z,4.96
2016-11-20T00:49:45.162Z,5.12
2016-11-20T00:50:45.145Z,5.02
2016-11-20T00:51:45.273Z,4.99
2016-11-20T00:52:45.396Z,4.96
2016-11-20T00:53:45.165Z,5.07
2016-11-20T00:54:45.154Z,5.23
2016-11-20T00:55:45.202Z,4.88
2016-11-20T00:56:45.206Z,5.13
2016-11-20T00:57:45.214Z,4.98
2016-11-20T00:58:45.222Z,4.94
2016-11-20T00:59:45.168Z,5.05
2016-11-20T01:00:45.370Z,5.12
2016-11-20T01:01:45.215Z,5.05
2016-11-20T01:02:45.190Z,5.2
2016-11-20T01:03:45.155Z,5.1
2016-11-20T01:04:45.175Z,4.84
2016-11-20T01:05:45.166Z,5.07
2016-11-20T01:06:45.872Z,5.14
2016-11-20T01:07:45.153Z,4.92
2016-11-20T01:08:45.149Z,5.04
2016-11-20T01:09:45.141Z,5.13
2016-11-20T01:10:45.152Z,5.01
2016-11-20T01:11:45.399Z,4.91
2016-11-20T01:12:45.158Z,5.02
2016-11-20T01:13:45.210Z,5.02
2016-11-20T01:14:45.159Z,5.01
2016-11-20T01:15:45.157Z,4.91
2016-11-20T01:16:45.230Z,4.94
2016-11-20T01:17:45.561Z,5.2
2016-11-20T01:18:45.212Z,5.14
2016-11-20T01:19:45.186Z,5.01
2016-11-20T01:20:45.145Z,4.94
2016-11-20T01:21:45.196Z,5.3
2016-11-20T01:22:45.189Z,5.01
2016-11-20T01:23:45.206Z,5.25
2016-11-20T01:24:45.190Z,5.09
2016-11-20T01:25:45.177Z,5.16
2016-11-20T01:26:45.228Z,5.2
2016-11-20T01:27:45.199Z,5.23
2016-11-20T01:28:45.203Z,5.07
2016-11-20T01:29:45.152Z,5.09
2016-11-20T01:30:45.201Z,5.12
2016-11-20T01:31:45.567Z,5.13
2016-11-20T01:32:45.166Z,5.16
2016-11-20T01:33:45.274Z,5.27
2016-11-20T01:34:45.177Z,5.3
2016-11-20T01:35:45.191Z,5.37
2016-11-20T01:36:45.199Z,5.4
2016-11-20T01:37:45.223Z,5.28
2016-11-20T01:38:45.257Z,5.14
2016-11-20T01:39:45.460Z,5.34
2016-11-20T01:40:45.228Z,5.27
2016-11-20T01:41:45.188Z,5.28
2016-11-20T01:42:45.174Z,5.2
2016-11-20T01:43:45.177Z,5.32
2016-11-20T01:44:45.162Z,5.32
2016-11-20T01:45:45.554Z,5.3
2016-11-20T01:46:45.402Z,5.46
2016-11-20T01:47:45.247Z,5.45
2016-11-20T01:48:45.171Z,5.38
2016-11-20T01:49:45.327Z,5.32
2016-11-20T01:50:45.177Z,5.63
2016-11-20T01:51:45.229Z,5.53
2016-11-20T01:52:45.206Z,5.49
2016-11-20T01:53:45.193Z,5.4
2016-11-20T01:54:45.226Z,5.46
2016-11-20T01:55:45.185Z,5.53
2016-11-20T01:56:45.222Z,5.55
2016-11-20T01:57:45.257Z,5.52
2016-11-20T01:58:45.207Z,5.57
2016-11-20T01:59:45.197Z,5.52
2016-11-20T02:00:45.195Z,5.56
2016-11-20T02:01:45.305Z,5.67
2016-11-20T02:02:45.300Z,5.55
2016-11-20T02:03:45.255Z,5.48
2016-11-20T02:04:45.189Z,5.63
2016-11-20T02:05:45.399Z,5.55
2016-11-20T02:06:45.205Z,5.57
2016-11-20T02:07:45.209Z,5.67
2016-11-20T02:08:45.184Z,5.6
2016-11-20T02:09:45.197Z,5.67
2016-11-20T02:10:45.360Z,5.64
2016-11-20T02:11:45.169Z,5.63
2016-11-20T02:12:45.450Z,5.63
2016-11-20T02:13:45.236Z,5.73
2016-11-20T02:14:45.236Z,5.74
2016-11-20T02:15:45.275Z,5.66
2016-11-20T02:16:45.197Z,5.83
2016-11-20T02:17:45.227Z,5.82
2016-11-20T02:18:45.194Z,5.81
2016-11-20T02:19:45.215Z,5.73
2016-11-20T02:20:45.220Z,5.86
2016-11-20T02:21:45.287Z,5.81
2016-11-20T02:22:45.276Z,5.82
2016-11-20T02:23:45.215Z,5.85
2016-11-20T02:24:45.204Z,5.74
2016-11-20T02:25:45.195Z,5.85
2016-11-20T02:26:45.234Z,5.71
2016-11-20T02:27:45.265Z,5.66
2016-11-20T02:28:45.412Z,5.82
2016-11-20T02:29:45.210Z,5.67
2016-11-20T02:30:45.201Z,5.91
2016-11-20T02:31:45.196Z,5.86
2016-11-20T02:32:45.225Z,5.82
2016-11-20T02:33:45.276Z,5.71
2016-11-20T02:34:45.347Z,5.77
2016-11-20T02:35:45.212Z,5.83
2016-11-20T02:36:45.235Z,5.92
2016-11-20T02:37:45.224Z,5.83
2016-11-20T02:38:45.235Z,5.95
2016-11-20T02:39:45.193Z,5.75
2016-11-20T02:40:45.246Z,5.85
2016-11-20T02:41:45.205Z,5.95
2016-11-20T02:42:45.625Z,5.92
2016-11-20T02:43:45.264Z,6.03
2016-11-20T02:44:45.374Z,5.98
2016-11-20T02:45:45.202Z,6
2016-11-20T02:46:45.215Z,6.06
2016-11-20T02:47:45.222Z,6.09
2016-11-20T02:48:45.237Z,6.1
2016-11-20T02:49:45.259Z,6.01
2016-11-20T02:50:45.431Z,6.04
2016-11-20T02:51:45.230Z,6.07
2016-11-20T02:52:45.234Z,6.09
2016-11-20T02:53:45.394Z,6.11
2016-11-20T02:54:45.208Z,6.22
2016-11-20T02:55:45.506Z,6.13
2016-11-20T02:56:45.237Z,6.01
2016-11-20T02:57:45.234Z,6.11
2016-11-20T02:58:45.221Z,6.06
2016-11-20T02:59:45.259Z,6.1
2016-11-20T03:00:45.443Z,6.07
2016-11-20T03:01:45.327Z,6.14
2016-11-20T03:02:45.231Z,6.28
2016-11-20T03:03:45.240Z,6.22
2016-11-20T03:04:45.247Z,6.16
2016-11-20T03:05:45.267Z,6.13
2016-11-20T03:06:45.256Z,6.21
2016-11-20T03:07:45.272Z,6.19
2016-11-20T03:08:45.271Z,6.19
2016-11-20T03:09:45.232Z,6.14
2016-11-20T03:10:45.228Z,6.21
2016-11-20T03:11:45.298Z,6.16
2016-11-20T03:12:45.276Z,6.13
2016-11-20T03:13:45.300Z,6.21
2016-11-20T03:14:45.263Z,6.26
2016-11-20T03:15:45.263Z,6.3
2016-11-20T03:16:45.549Z,6.13
2016-11-20T03:17:45.251Z,6.16
2016-11-20T03:18:45.272Z,6.26
2016-11-20T03:19:45.279Z,6.3
2016-11-20T03:20:45.285Z,6.33
2016-11-20T03:21:45.250Z,6.26
2016-11-20T03:22:45.383Z,6.29
2016-11-20T03:23:45.261Z,6.41
2016-11-20T03:24:45.231Z,6.14
2016-11-20T03:25:45.257Z,6.19
2016-11-20T03:26:45.241Z,6.19
2016-11-20T03:27:45.248Z,6.22
2016-11-20T03:28:45.269Z,6.32
2016-11-20T03:29:45.247Z,6.16
2016-11-20T03:30:45.426Z,6.28
2016-11-20T03:31:45.244Z,6.29
2016-11-20T03:32:45.367Z,6.36
2016-11-20T03:33:45.320Z,6.26
2016-11-20T03:34:45.415Z,6.29
2016-11-20T03:35:45.282Z,6.25
2016-11-20T03:36:45.255Z,6.22
2016-11-20T03:37:45.398Z,6.11
2016-11-20T03:38:45.436Z,6.29
2016-11-20T03:39:45.253Z,6.25
2016-11-20T03:40:45.258Z,6.29
2016-11-20T03:41:45.242Z,6.18
2016-11-20T03:42:45.370Z,6.21
2016-11-20T03:43:45.494Z,6.18
2016-11-20T03:44:45.253Z,6.06
2016-11-20T03:45:45.270Z,6.21
2016-11-20T03:46:45.266Z,6.19
2016-11-20T03:47:45.260Z,6.26
2016-11-20T03:48:45.689Z,6.22
2016-11-20T03:49:45.374Z,6.25
2016-11-20T03:50:45.265Z,6.06
2016-11-20T03:51:45.413Z,6.35
2016-11-20T03:52:45.293Z,6.25
2016-11-20T03:53:45.264Z,6.16
2016-11-20T03:54:45.260Z,6.18
2016-11-20T03:55:45.251Z,6.14
2016-11-20T03:56:45.315Z,6.18
2016-11-20T03:57:45.260Z,6.21
2016-11-20T03:58:45.298Z,6.07
2016-11-20T03:59:45.301Z,6.11
2016-11-20T04:00:45.266Z,6.07
2016-11-20T04:01:45.289Z,6.1
2016-11-20T04:02:45.288Z,6.03
2016-11-20T04:03:45.447Z,5.95
2016-11-20T04:04:45.503Z,5.93
2016-11-20T04:05:45.425Z,5.95
2016-11-20T04:06:45.300Z,5.95
2016-11-20T04:07:45.340Z,5.83
2016-11-20T04:08:45.295Z,5.88
2016-11-20T04:09:45.278Z,5.85
2016-11-20T04:10:45.376Z,5.71
2016-11-20T04:11:45.412Z,5.78
2016-11-20T04:12:45.274Z,5.78
2016-11-20T04:13:45.300Z,5.7
2016-11-20T04:14:45.292Z,5.71
2016-11-20T04:15:45.279Z,5.67
2016-11-20T04:16:45.397Z,5.81
2016-11-20T04:17:45.460Z,5.67
2016-11-20T04:18:45.425Z,5.52
2016-11-20T04:19:45.456Z,5.6
2016-11-20T04:20:45.318Z,5.66
2016-11-20T04:21:45.285Z,5.73
2016-11-20T04:22:45.513Z,5.67
2016-11-20T04:23:45.355Z,5.64
2016-11-20T04:24:45.417Z,5.78
2016-11-20T04:25:45.345Z,5.6
2016-11-20T04:26:45.303Z,5.77
2016-11-20T04:27:45.313Z,5.86
2016-11-20T04:28:45.356Z,5.83
2016-11-20T04:29:45.267Z,5.88
2016-11-20T04:30:45.284Z,5.91
2016-11-20T04:31:45.309Z,5.92
2016-11-20T04:32:45.302Z,5.88
2016-11-20T04:33:45.316Z,5.89
2016-11-20T04:34:45.303Z,5.88
2016-11-20T04:35:45.312Z,5.83
2016-11-20T04:36:45.575Z,5.91
2016-11-20T04:37:45.578Z,6.01
2016-11-20T04:38:45.318Z,5.95
2016-11-20T04:39:45.308Z,5.89
2016-11-20T04:40:45.316Z,5.96
2016-11-20T04:41:45.292Z,6.03
2016-11-20T04:42:45.311Z,5.98
2016-11-20T04:43:45.334Z,5.92
2016-11-20T04:44:45.395Z,6.09
2016-11-20T04:45:45.309Z,6.06
2016-11-20T04:46:45.308Z,6.03
2016-11-20T04:47:45.312Z,6.09
2016-11-20T04:48:45.368Z,6.26
2016-11-20T04:49:45.289Z,6.18
2016-11-20T04:50:45.306Z,6.21
2016-11-20T04:51:45.308Z,6.36
2016-11-20T04:52:45.309Z,6.38
2016-11-20T04:53:45.367Z,6.29
2016-11-20T04:54:45.320Z,6.35
2016-11-20T04:55:45.451Z,6.46
2016-11-20T04:56:45.309Z,6.44
2016-11-20T04:57:45.299Z,6.36
2016-11-20T04:58:45.311Z,6.41
2016-11-20T04:59:45.307Z,6.44
2016-11-20T05:00:45.336Z,6.5
2016-11-20T05:01:45.307Z,6.38
2016-11-20T05:02:45.304Z,6.29
2016-11-20T05:03:45.338Z,6.32
2016-11-20T05:04:45.316Z,6.32
2016-11-20T05:05:45.309Z,6.36
2016-11-20T05:06:45.315Z,6.35
2016-11-20T05:07:45.320Z,6.38
2016-11-20T05:08:45.335Z,6.41
2016-11-20T05:09:45.316Z,6.4
2016-11-20T05:10:45.325Z,6.4
2016-11-20T05:11:45.325Z,6.44
2016-11-20T05:12:45.288Z,6.51
2016-11-20T05:13:45.344Z,6.46
2016-11-20T05:14:45.309Z,6.41
2016-11-20T05:15:45.308Z,6.4
2016-11-20T05:16:45.304Z,6.41
2016-11-20T05:17:45.312Z,6.38
2016-11-20T05:18:45.327Z,6.43
2016-11-20T05:19:45.332Z,6.33
2016-11-20T05:20:45.326Z,6.36
2016-11-20T05:21:45.338Z,6.38
2016-11-20T05:22:45.328Z,6.38
2016-11-20T05:23:45.343Z,6.43
2016-11-20T05:24:45.326Z,6.5
2016-11-20T05:25:45.322Z,6.51
2016-11-20T05:26:45.344Z,6.58
2016-11-20T05:27:45.328Z,6.5
2016-11-20T05:28:45.433Z,6.51
2016-11-20T05:29:45.340Z,6.56
2016-11-20T05:30:45.344Z,6.56
2016-11-20T05:31:46.070Z,6.48
2016-11-20T05:32:45.394Z,6.5
2016-11-20T05:33:45.356Z,6.46
2016-11-20T05:34:45.338Z,6.58
2016-11-20T05:35:45.352Z,6.54
2016-11-20T05:36:45.321Z,6.43
2016-11-20T05:37:45.331Z,6.56
2016-11-20T05:38:45.351Z,6.47
2016-11-20T05:39:45.346Z,6.54
2016-11-20T05:40:45.342Z,6.63
2016-11-20T05:41:45.359Z,6.58
2016-11-20T05:42:45.351Z,6.53
2016-11-20T05:43:45.339Z,6.59
2016-11-20T05:44:45.365Z,6.54
2016-11-20T05:45:45.347Z,6.61
2016-11-20T05:46:45.334Z,6.58
2016-11-20T05:47:45.334Z,6.62
2016-11-20T05:48:45.323Z,6.65
2016-11-20T05:49:45.355Z,6.61
2016-11-20T05:50:45.336Z,6.62
2016-11-20T05:51:45.352Z,6.61
2016-11-20T05:52:45.349Z,6.65
2016-11-20T05:53:45.337Z,6.61
2016-11-20T05:54:45.361Z,6.63
2016-11-20T05:55:45.374Z,6.66
2016-11-20T05:56:45.347Z,6.65
2016-11-20T05:57:45.332Z,6.65
2016-11-20T05:58:45.400Z,6.65
2016-11-20T05:59:45.368Z,6.66
2016-11-20T06:00:45.406Z,6.69
2016-11-20T06:01:45.350Z,6.8
2016-11-20T06:02:45.374Z,6.76
2016-11-20T06:03:45.350Z,6.8
2016-11-20T06:04:45.393Z,6.76
2016-11-20T06:05:45.354Z,6.84
2016-11-20T06:06:45.348Z,6.87
2016-11-20T06:07:45.355Z,6.87
2016-11-20T06:08:45.358Z,6.91
2016-11-20T06:09:45.366Z,6.79
2016-11-20T06:10:45.358Z,6.86
2016-11-20T06:11:45.404Z,6.94
2016-11-20T06:12:45.346Z,6.84
2016-11-20T06:13:45.360Z,7.02
2016-11-20T06:14:45.386Z,6.91
2016-11-20T06:15:45.357Z,6.99
2016-11-20T06:16:45.352Z,7.08
2016-11-20T06:17:45.362Z,7.12
2016-11-20T06:18:45.364Z,7.05
2016-11-20T06:19:45.385Z,7.13
2016-11-20T06:20:45.359Z,7.09
2016-11-20T06:21:45.369Z,7.08
2016-11-20T06:22:45.366Z,7.15
2016-11-20T06:23:45.355Z,7.13
2016-11-20T06:24:45.379Z,7.04
2016-11-20T06:25:45.355Z,7.12
2016-11-20T06:26:45.384Z,7.13
2016-11-20T06:27:45.373Z,7.19
2016-11-20T06:28:45.355Z,7.19
2016-11-20T06:29:45.413Z,7.2
2016-11-20T06:30:45.382Z,7.29
2016-11-20T06:31:45.375Z,7.26
2016-11-20T06:32:45.381Z,7.19
2016-11-20T06:33:45.383Z,7.19
2016-11-20T06:34:45.396Z,7.29
2016-11-20T06:35:45.371Z,7.09
2016-11-20T06:36:45.389Z,7.26
2016-11-20T06:37:45.365Z,7.26
2016-11-20T06:38:45.361Z,7.2
2016-11-20T06:39:45.484Z,7.27
2016-11-20T06:40:45.362Z,7.22
2016-11-20T06:41:45.361Z,7.26
2016-11-20T06:42:45.385Z,7.24
2016-11-20T06:43:45.394Z,7.15
2016-11-20T06:44:46.321Z,7.02
2016-11-20T06:45:45.408Z,7.22
2016-11-20T06:46:45.387Z,7.09
2016-11-20T06:47:45.378Z,7.17
2016-11-20T06:48:45.387Z,7.26
2016-11-20T06:49:45.381Z,7.24
2016-11-20T06:50:45.424Z,7.2
2016-11-20T06:51:45.393Z,7.22
2016-11-20T06:52:45.404Z,7.2
2016-11-20T06:53:45.388Z,7.15
2016-11-20T06:54:45.407Z,7.34
2016-11-20T06:55:45.435Z,7.19
2016-11-20T06:56:45.452Z,7.2
2016-11-20T06:57:45.407Z,7.23
2016-11-20T06:58:45.384Z,7.24
2016-11-20T06:59:45.428Z,7.23
2016-11-20T07:00:45.401Z,7.24
2016-11-20T07:01:45.402Z,7.31
2016-11-20T07:02:45.414Z,7.24
2016-11-20T07:03:45.410Z,7.19
2016-11-20T07:04:45.400Z,7.29
2016-11-20T07:05:45.419Z,7.23
2016-11-20T07:06:45.407Z,7.34
2016-11-20T07:07:45.436Z,7.34
2016-11-20T07:08:45.413Z,7.35
2016-11-20T07:09:45.411Z,7.41
2016-11-20T07:10:45.414Z,7.4
2016-11-20T07:11:45.436Z,7.34
2016-11-20T07:12:45.382Z,7.38
2016-11-20T07:13:45.389Z,7.5
2016-11-20T07:14:45.444Z,7.47
2016-11-20T07:15:45.431Z,7.53
2016-11-20T07:16:45.476Z,7.58
2016-11-20T07:17:45.424Z,7.52
2016-11-20T07:18:45.440Z,7.58
2016-11-20T07:19:45.402Z,7.67
2016-11-20T07:20:45.412Z,7.72
2016-11-20T07:21:45.431Z,7.72
2016-11-20T07:22:45.441Z,7.66
2016-11-20T07:23:45.416Z,7.77
2016-11-20T07:24:45.401Z,7.72
2016-11-20T07:25:45.413Z,7.67
2016-11-20T07:26:45.469Z,7.78
2016-11-20T07:27:45.423Z,7.69
2016-11-20T07:28:45.431Z,7.71
2016-11-20T07:29:45.428Z,7.74
2016-11-20T07:30:45.426Z,7.72
2016-11-20T07:31:45.469Z,7.81
2016-11-20T07:32:45.411Z,7.77
2016-11-20T07:33:45.423Z,7.77
2016-11-20T07:34:45.404Z,7.81
2016-11-20T07:35:45.431Z,7.66
2016-11-20T07:36:45.437Z,7.84
2016-11-20T07:37:45.413Z,7.94
2016-11-20T07:38:45.435Z,7.85
2016-11-20T07:39:45.415Z,7.84
2016-11-20T07:40:45.453Z,7.74
2016-11-20T07:41:45.439Z,7.89
2016-11-20T07:42:45.461Z,7.84
2016-11-20T07:43:45.437Z,7.94
2016-11-20T07:44:45.416Z,7.9
2016-11-20T07:45:45.427Z,7.89
2016-11-20T07:46:45.434Z,8.03
2016-11-20T07:47:45.438Z,8.03
2016-11-20T07:48:45.431Z,8.04
2016-11-20T07:49:45.442Z,8.02
2016-11-20T07:50:45.443Z,8.04
2016-11-20T07:51:45.488Z,7.97
2016-11-20T07:52:45.462Z,7.94
2016-11-20T07:53:45.450Z,8.11
2016-11-20T07:54:45.447Z,8.07
2016-11-20T07:55:45.440Z,7.97
2016-11-20T07:56:45.461Z,8.11
2016-11-20T07:57:45.456Z,7.97
2016-11-20T07:58:45.465Z,8.12
2016-11-20T07:59:45.440Z,8.11
2016-11-20T08:00:45.465Z,8.1
2016-11-20T08:01:45.430Z,8.08
2016-11-20T08:02:45.479Z,8.18
2016-11-20T08:03:45.486Z,8.2
2016-11-20T08:04:45.509Z,8.1
2016-11-20T08:05:45.446Z,8.15
2016-11-20T08:06:45.468Z,8.03
2016-11-20T08:07:45.478Z,8.21
2016-11-20T08:08:45.466Z,8.17
2016-11-20T08:09:45.430Z,8.11
2016-11-20T08:10:45.427Z,8.1
2016-11-20T08:11:45.471Z,8.11
2016-11-20T08:12:45.466Z,8.1
2016-11-20T08:13:45.445Z,8.07
2016-11-20T08:14:45.451Z,8.28
2016-11-20T08:15:45.454Z,8.14
2016-11-20T08:16:45.443Z,8.26
2016-11-20T08:17:45.496Z,8.14
2016-11-20T08:18:45.491Z,8.35
2016-11-20T08:19:45.497Z,8.26
2016-11-20T08:20:45.467Z,8.25
2016-11-20T08:21:45.457Z,8.32
2016-11-20T08:22:45.458Z,8.32
2016-11-20T08:23:45.456Z,8.35
2016-11-20T08:24:45.488Z,8.29
2016-11-20T08:25:45.467Z,8.28
2016-11-20T08:26:45.460Z,8.25
2016-11-20T08:27:45.470Z,8.35
2016-11-20T08:28:45.451Z,8.4
2016-11-20T08:29:45.467Z,8.33
2016-11-20T08:30:45.812Z,8.35
2016-11-20T08:31:45.471Z,8.33
2016-11-20T08:32:45.523Z,8.39
2016-11-20T08:33:45.503Z,8.28
2016-11-20T08:34:45.503Z,8.33
2016-11-20T08:35:45.469Z,8.39
2016-11-20T08:36:45.471Z,8.26
2016-11-20T08:37:45.469Z,8.2
2016-11-20T08:38:45.485Z,8.11
2016-11-20T08:39:45.474Z,8.11
2016-11-20T08:40:45.479Z,8.18
2016-11-20T08:41:45.486Z,8.17
2016-11-20T08:42:45.477Z,8.15
2016-11-20T08:43:45.471Z,8
2016-11-20T08:44:45.463Z,8.03
2016-11-20T08:45:45.456Z,8.08
2016-11-20T08:46:45.477Z,8.11
2016-11-20T08:47:45.479Z,8.17
2016-11-20T08:48:45.692Z,8.04
2016-11-20T08:49:45.523Z,7.99
2016-11-20T08:50:45.495Z,8.02
2016-11-20T08:51:45.475Z,8.03
2016-11-20T08:52:45.490Z,7.87
2016-11-20T08:53:45.484Z,7.87
2016-11-20T08:54:45.494Z,7.89
2016-11-20T08:55:45.481Z,7.79
2016-11-20T08:56:45.533Z,7.84
2016-11-20T08:57:45.485Z,7.78
2016-11-20T08:58:45.509Z,7.87
2016-11-20T08:59:45.487Z,7.78
2016-11-20T09:00:45.571Z,7.75
2016-11-20T09:01:45.487Z,7.75
2016-11-20T09:02:45.517Z,7.79
2016-11-20T09:03:45.500Z,7.85
2016-11-20T09:04:45.757Z,7.74
2016-11-20T09:05:45.493Z,7.84
2016-11-20T09:06:45.481Z,7.81
2016-11-20T09:07:45.477Z,7.79
2016-11-20T09:08:45.496Z,7.81
2016-11-20T09:09:45.592Z,7.78
2016-11-20T09:10:45.522Z,7.9
2016-11-20T09:11:45.491Z,7.82
2016-11-20T09:12:45.556Z,7.92
2016-11-20T09:13:45.542Z,7.78
2016-11-20T09:14:45.543Z,7.84
2016-11-20T09:15:45.517Z,7.84
2016-11-20T09:16:45.503Z,7.89
2016-11-20T09:17:45.564Z,7.92
2016-11-20T09:18:45.500Z,7.99
2016-11-20T09:19:45.554Z,7.93
2016-11-20T09:20:45.496Z,7.96
2016-11-20T09:21:45.522Z,7.99
2016-11-20T09:22:45.565Z,8.14
2016-11-20T09:23:45.570Z,8.1
2016-11-20T09:24:45.522Z,7.99
2016-11-20T09:25:45.531Z,8.1
2016-11-20T09:26:45.509Z,8.11
2016-11-20T09:27:45.545Z,8.22
2016-11-20T09:28:45.545Z,8.14
2016-11-20T09:29:45.568Z,8.14
2016-11-20T09:30:55.437Z,8.21
2016-11-20T09:31:45.632Z,8.26
2016-11-20T09:32:45.543Z,8.21
2016-11-20T09:33:45.509Z,8.3
2016-11-20T09:34:45.511Z,8.35
2016-11-20T09:35:45.525Z,8.47
2016-11-20T09:36:45.544Z,8.48
2016-11-20T09:37:45.525Z,8.51
2016-11-20T09:38:45.592Z,8.63
2016-11-20T09:39:45.496Z,8.86
2016-11-20T09:40:45.532Z,8.9
2016-11-20T09:41:45.499Z,8.81
2016-11-20T09:42:45.500Z,8.94
2016-11-20T09:43:45.549Z,8.99
2016-11-20T09:44:45.547Z,9.06
2016-11-20T09:45:45.528Z,9.01
2016-11-20T09:46:45.516Z,9.04
2016-11-20T09:47:45.534Z,9.16
2016-11-20T09:48:45.528Z,9.13
2016-11-20T09:49:45.603Z,9.25
2016-11-20T09:50:45.538Z,9.25
2016-11-20T09:51:45.517Z,9.28
2016-11-20T09:52:45.552Z,9.39
2016-11-20T09:53:45.510Z,9.42
2016-11-20T09:54:45.524Z,9.43
2016-11-20T09:55:45.966Z,9.31
2016-11-20T09:56:45.501Z,9.39
2016-11-20T09:57:45.525Z,9.45
2016-11-20T09:58:45.529Z,9.52
2016-11-20T09:59:45.821Z,9.53
2016-11-20T10:00:45.614Z,9.42
2016-11-20T10:01:45.546Z,9.48
2016-11-20T10:02:45.565Z,9.5
2016-11-20T10:03:45.655Z,9.5
2016-11-20T10:04:45.610Z,9.63
2016-11-20T10:05:45.535Z,9.6
2016-11-20T10:06:45.529Z,9.64
2016-11-20T10:07:45.548Z,9.6
2016-11-20T10:08:45.534Z,9.71
2016-11-20T10:09:45.531Z,9.78
2016-11-20T10:10:45.529Z,9.82
2016-11-20T10:11:45.579Z,9.99
2016-11-20T10:12:45.560Z,9.86
2016-11-20T10:13:45.541Z,10.04
2016-11-20T10:14:45.584Z,10.01
2016-11-20T10:15:46.223Z,10.22
2016-11-20T10:16:45.874Z,10.15
2016-11-20T10:17:45.525Z,10.1
2016-11-20T10:18:45.531Z,10.15
2016-11-20T10:19:45.571Z,10.25
2016-11-20T10:20:45.685Z,10.34
2016-11-20T10:21:45.707Z,10.37
2016-11-20T10:22:49.983Z,10.33
2016-11-20T10:23:45.961Z,10.4
2016-11-20T10:24:45.643Z,10.3
2016-11-20T10:25:45.609Z,10.42
2016-11-20T10:26:45.678Z,10.42
2016-11-20T10:27:45.581Z,10.63
2016-11-20T10:28:45.552Z,10.53
2016-11-20T10:29:45.547Z,10.63
2016-11-20T10:30:45.710Z,10.63
2016-11-20T10:31:45.646Z,10.77
2016-11-20T10:32:45.623Z,10.74
2016-11-20T10:33:45.640Z,10.76
2016-11-20T10:34:45.598Z,10.7
2016-11-20T10:35:45.669Z,10.74
2016-11-20T10:36:45.740Z,10.7
2016-11-20T10:37:51.123Z,10.63
2016-11-20T10:38:47.534Z,10.55
2016-11-20T10:39:51.730Z,10.58
2016-11-20T10:40:50.324Z,10.65
2016-11-20T10:41:50.271Z,10.55
2016-11-20T10:42:45.731Z,10.71
2016-11-20T10:43:52.751Z,10.62
2016-11-20T10:44:52.696Z,10.62
2016-11-20T10:45:51.907Z,10.66
2016-11-20T10:46:53.918Z,10.68
2016-11-20T10:47:51.862Z,10.51
2016-11-20T10:48:53.042Z,10.7
2016-11-20T10:49:52.153Z,10.65
2016-11-20T10:50:53.260Z,10.65
2016-11-20T10:51:53.165Z,10.52
2016-11-20T10:52:53.897Z,10.58
2016-11-20T10:53:53.231Z,10.63
2016-11-20T10:54:53.043Z,10.71
2016-11-20T10:55:53.471Z,10.71
2016-11-20T10:56:53.987Z,10.66
2016-11-20T10:57:52.751Z,10.6
2016-11-20T10:58:46.357Z,10.68
2016-11-20T10:59:45.747Z,10.59
2016-11-20T11:00:45.823Z,10.66
2016-11-20T11:01:45.912Z,10.76
2016-11-20T11:02:46.445Z,10.6
2016-11-20T11:03:45.913Z,10.63
2016-11-20T11:04:46.005Z,10.68
2016-11-20T11:05:45.763Z,10.68
2016-11-20T11:06:45.944Z,10.71
2016-11-20T11:07:45.887Z,10.68
2016-11-20T11:08:45.824Z,10.73
2016-11-20T11:09:45.964Z,10.74
2016-11-20T11:10:45.698Z,10.77
2016-11-20T11:11:45.690Z,10.91
2016-11-20T11:12:45.743Z,10.95
2016-11-20T11:13:45.698Z,11.07
2016-11-20T11:14:46.014Z,11.19
2016-11-20T11:15:45.945Z,11.28
2016-11-20T11:16:46.192Z,11.54
2016-11-20T11:17:46.178Z,11.53
2016-11-20T11:18:45.972Z,11.61
2016-11-20T11:19:46.088Z,11.78
2016-11-20T11:20:46.258Z,11.9
2016-11-20T11:21:46.480Z,11.9
2016-11-20T11:22:45.989Z,12.02
2016-11-20T11:23:45.907Z,12.2
2016-11-20T11:24:45.761Z,12.19
2016-11-20T11:25:46.710Z,12.13
2016-11-20T11:26:45.910Z,12.12
2016-11-20T11:27:52.021Z,12.19
2016-11-20T11:28:52.255Z,12.15
2016-11-20T11:29:50.471Z,12.38
2016-11-20T11:30:53.375Z,12.34
2016-11-20T11:31:53.425Z,12.31
2016-11-20T11:32:52.447Z,12.3
2016-11-20T11:33:53.199Z,12.49
2016-11-20T11:34:53.327Z,12.45
2016-11-20T11:35:52.337Z,12.44
2016-11-20T11:36:53.047Z,12.38
2016-11-20T11:37:53.052Z,12.39
2016-11-20T11:38:52.610Z,12.31
2016-11-20T11:39:53.199Z,12.37
2016-11-20T11:40:52.203Z,12.27
2016-11-20T11:41:52.981Z,12.39
2016-11-20T11:42:53.835Z,12.24
2016-11-20T11:43:50.668Z,12.38
2016-11-20T11:44:54.156Z,12.38
2016-11-20T11:45:52.955Z,12.44
2016-11-20T11:46:51.770Z,12.45
2016-11-20T11:47:51.228Z,12.44
2016-11-20T11:48:51.151Z,12.34
2016-11-20T11:49:45.687Z,12.3
2016-11-20T11:50:45.959Z,12.33
2016-11-20T11:51:45.737Z,12.42
2016-11-20T11:52:45.678Z,12.33
2016-11-20T11:53:45.613Z,12.34
2016-11-20T11:54:45.641Z,12.33
2016-11-20T11:55:45.654Z,12.29
2016-11-20T11:56:45.739Z,12.33
2016-11-20T11:57:45.654Z,12.26
2016-11-20T11:58:45.867Z,12.31
2016-11-20T11:59:46.073Z,12.33
2016-11-20T12:00:45.683Z,12.27
2016-11-20T12:01:45.700Z,12.24
2016-11-20T12:02:45.635Z,12.3
2016-11-20T12:03:45.803Z,12.41
2016-11-20T12:04:45.662Z,12.37
2016-11-20T12:05:46.144Z,12.38
2016-11-20T12:06:52.878Z,12.46
2016-11-20T12:07:52.353Z,12.45
2016-11-20T12:08:45.633Z,12.3
2016-11-20T12:09:52.399Z,12.46
2016-11-20T12:10:52.703Z,12.57
2016-11-20T12:11:52.280Z,12.59
2016-11-20T12:12:50.559Z,12.67
2016-11-20T12:14:12.294Z,12.87
2016-11-20T12:15:22.274Z,12.92
2016-11-20T12:16:44.554Z,13.06
2016-11-20T12:18:04.481Z,13.12
2016-11-20T12:19:22.652Z,13.15
2016-11-20T12:20:42.518Z,13.17
2016-11-20T12:21:53.103Z,13.22
2016-11-20T12:22:42.858Z,13.27
2016-11-20T12:24:05.968Z,13.36
2016-11-20T12:25:28.506Z,13.41
2016-11-20T12:26:49.504Z,13.44
2016-11-20T12:28:11.273Z,13.44
2016-11-20T12:29:31.991Z,13.62
2016-11-20T12:30:51.640Z,13.65
2016-11-20T12:32:13.564Z,13.74
2016-11-20T12:33:36.001Z,13.79
2016-11-20T12:34:53.963Z,13.63
2016-11-20T12:36:13.220Z,13.8
2016-11-20T12:37:16.543Z,13.87
2016-11-20T12:37:58.443Z,13.89
2016-11-20T12:38:58.042Z,14.02
2016-11-20T12:39:58.120Z,13.96
2016-11-20T12:40:58.017Z,14.04
2016-11-20T12:41:58.055Z,14.07
2016-11-20T12:42:58.093Z,14.13
2016-11-20T12:43:58.034Z,14.01
2016-11-20T12:44:58.232Z,14.1
2016-11-20T12:46:05.240Z,14.14
2016-11-20T12:46:58.826Z,14.06
2016-11-20T12:48:03.140Z,14.16
2016-11-20T12:49:04.529Z,14.27
2016-11-20T12:50:04.811Z,13.99
2016-11-20T12:51:04.345Z,14.07
2016-11-20T12:52:05.604Z,14.17
2016-11-20T12:53:05.109Z,14.14
2016-11-20T12:54:05.130Z,14.06
2016-11-20T12:55:04.855Z,14.2
2016-11-20T12:56:03.519Z,14.17
2016-11-20T12:57:05.733Z,14.19
2016-11-20T12:58:05.840Z,14.16
2016-11-20T12:59:03.917Z,14.27
2016-11-20T13:00:02.159Z,14.25
2016-11-20T13:01:04.218Z,14.21
2016-11-20T13:02:04.052Z,14.16
2016-11-20T13:03:04.121Z,14.24
2016-11-20T13:04:04.347Z,14.31
2016-11-20T13:04:58.082Z,14.2
2016-11-20T13:06:00.104Z,14.19
2016-11-20T13:06:58.421Z,14.28
2016-11-20T13:07:58.171Z,14.25
2016-11-20T13:08:58.066Z,14.37
2016-11-20T13:09:58.046Z,14.31
2016-11-20T13:10:58.324Z,14.31
2016-11-20T13:11:58.565Z,14.34
2016-11-20T13:12:58.034Z,14.38
2016-11-20T13:13:58.100Z,14.38
2016-11-20T13:14:58.477Z,14.37
2016-11-20T13:15:58.496Z,14.25
2016-11-20T13:16:58.482Z,14.25
2016-11-20T13:17:58.563Z,14.37
2016-11-20T13:18:58.672Z,14.32
2016-11-20T13:19:58.201Z,14.37
2016-11-20T13:20:58.917Z,14.24